Time;durP1;ratioP1;P1;durP2;ratioP2;P2;SDS_P1;SDS_P2;PMS_P1;PMS_P2;Temp;Humidity;BMP_temperature;BMP_pressure;BME280_temperature;BME280_humidity;BME280_pressure;Samples;Min_cycle;Max_cycle;Signal;HPM_P1;HPM_P2
2022/10/09 00:02:24;;;;;;;11.93;4.10;;;;;;;;;;6183951;23;20033;-78
2022/10/09 00:04:50;;;;;;;10.93;4.10;;;;;;;;;;6184039;23;20036;-78
2022/10/09 00:07:16;;;;;;;8.88;4.07;;;;;;;;;;6177411;23;20065;-77
2022/10/09 00:09:43;;;;;;;8.18;4.13;;;;;;;;;;6153896;23;20030;-77
2022/10/09 00:12:09;;;;;;;13.75;4.03;;;;;;;;;;6154901;23;20033;-77
2022/10/09 00:14:35;;;;;;;10.32;4.30;;;;;;;;;;6154122;23;20025;-77
2022/10/09 00:17:01;;;;;;;7.97;4.30;;;;;;;;;;6154350;23;20030;-78
2022/10/09 00:19:28;;;;;;;9.75;4.10;;;;;;;;;;6127657;23;21297;-77
2022/10/09 00:21:54;;;;;;;11.32;4.30;;;;;;;;;;6128902;23;20479;-77
2022/10/09 00:24:21;;;;;;;10.98;4.80;;;;;;;;;;6153471;23;20484;-77
2022/10/09 00:26:47;;;;;;;12.32;4.82;;;;;;;;;;6154574;23;20471;-77
2022/10/09 00:29:14;;;;;;;12.98;4.70;;;;;;;;;;6154078;23;20033;-77
2022/10/09 00:31:40;;;;;;;12.88;5.07;;;;;;;;;;6153940;23;20035;-77
2022/10/09 00:34:06;;;;;;;11.07;5.43;;;;;;;;;;6127538;23;20018;-77
2022/10/09 00:36:32;;;;;;;14.27;5.88;;;;;;;;;;6154007;23;20113;-77
2022/10/09 00:38:59;;;;;;;10.45;5.47;;;;;;;;;;6154125;23;20025;-77
2022/10/09 00:41:28;;;;;;;10.05;5.45;;;;;;;;;;6127927;23;20030;-77
2022/10/09 00:43:58;;;;;;;11.65;5.57;;;;;;;;;;6127268;23;20030;-77
2022/10/09 00:46:35;;;;;;;14.00;5.90;;;;;;;;;;6153801;23;20029;-77
2022/10/09 00:49:04;;;;;;;15.48;5.93;;;;;;;;;;6127227;23;20109;-77
2022/10/09 00:51:32;;;;;;;12.65;5.00;;;;;;;;;;6127038;23;20458;-77
2022/10/09 00:54:00;;;;;;;11.75;4.40;;;;;;;;;;6128972;23;20030;-77
2022/10/09 00:56:27;;;;;;;11.65;4.65;;;;;;;;;;6126883;23;20089;-77
2022/10/09 00:58:55;;;;;;;10.20;4.65;;;;;;;;;;6127401;23;20034;-77
2022/10/09 01:01:21;;;;;;;7.38;4.13;;;;;;;;;;6153845;23;20026;-77
2022/10/09 01:03:47;;;;;;;9.63;3.90;;;;;;;;;;6127083;23;20030;-78
2022/10/09 01:06:52;;;;;;;7.45;4.00;;;;;;;;;;6153534;23;20025;-77
2022/10/09 01:09:22;;;;;;;8.77;4.50;;;;;;;;;;6063375;23;20464;-78
2022/10/09 01:11:54;;;;;;;9.93;4.15;;;;;;;;;;6062648;23;20031;-77
2022/10/09 01:14:24;;;;;;;10.05;4.22;;;;;;;;;;6110779;23;20415;-77
2022/10/09 01:16:51;;;;;;;10.87;4.73;;;;;;;;;;6154912;23;20029;-77
2022/10/09 01:19:20;;;;;;;9.52;4.40;;;;;;;;;;6151987;23;20048;-77
2022/10/09 01:22:01;;;;;;;8.38;4.72;;;;;;;;;;6152413;23;20077;-76
2022/10/09 01:24:35;;;;;;;9.65;4.80;;;;;;;;;;6153501;23;20490;-77
2022/10/09 01:27:04;;;;;;;10.65;4.90;;;;;;;;;;6153258;23;20030;-77
2022/10/09 01:29:39;;;;;;;11.82;5.32;;;;;;;;;;6154249;23;20033;-78
2022/10/09 01:32:06;;;;;;;8.98;4.75;;;;;;;;;;6154062;23;20388;-78
2022/10/09 01:34:33;;;;;;;8.00;4.55;;;;;;;;;;6153770;23;20026;-77
2022/10/09 01:36:59;;;;;;;9.80;4.53;;;;;;;;;;6152014;23;20107;-77
2022/10/09 01:39:26;;;;;;;10.95;4.97;;;;;;;;;;6153377;23;20467;-77
2022/10/09 01:41:53;;;;;;;9.00;4.63;;;;;;;;;;6151476;23;20048;-77
2022/10/09 01:44:29;;;;;;;9.40;3.92;;;;;;;;;;6151731;23;20033;-77
2022/10/09 01:46:56;;;;;;;6.47;3.70;;;;;;;;;;6153248;23;20030;-77
2022/10/09 01:49:41;;;;;;;9.13;4.10;;;;;;;;;;6152646;23;20026;-77
2022/10/09 01:52:20;;;;;;;10.82;4.47;;;;;;;;;;6151122;23;20034;-77
2022/10/09 01:54:51;;;;;;;9.63;4.90;;;;;;;;;;6151271;23;20030;-77
2022/10/09 01:57:22;;;;;;;9.00;5.05;;;;;;;;;;6151504;23;20471;-77
2022/10/09 01:59:50;;;;;;;9.95;5.22;;;;;;;;;;6153503;23;20482;-77
2022/10/09 02:02:17;;;;;;;11.15;4.88;;;;;;;;;;6151208;23;20046;-77
2022/10/09 02:04:44;;;;;;;12.00;4.85;;;;;;;;;;6152990;23;20069;-77
2022/10/09 02:07:10;;;;;;;7.80;4.55;;;;;;;;;;6151067;23;20053;-77
2022/10/09 02:09:38;;;;;;;9.77;4.90;;;;;;;;;;6152486;23;20471;-77
2022/10/09 02:12:06;;;;;;;10.27;5.45;;;;;;;;;;6127667;23;20107;-78
2022/10/09 02:14:33;;;;;;;9.75;5.22;;;;;;;;;;6153092;23;20034;-78
2022/10/09 02:17:05;;;;;;;11.68;5.45;;;;;;;;;;6152417;23;20030;-77
2022/10/09 02:19:54;;;;;;;10.95;5.78;;;;;;;;;;6153056;23;20037;-77
2022/10/09 02:22:22;;;;;;;13.13;5.00;;;;;;;;;;6153850;23;20036;-77
2022/10/09 02:24:48;;;;;;;8.20;4.40;;;;;;;;;;6152995;23;20034;-77
2022/10/09 02:27:17;;;;;;;8.02;3.95;;;;;;;;;;6153481;23;20912;-77
2022/10/09 02:29:44;;;;;;;8.68;4.07;;;;;;;;;;6128826;23;20034;-77
2022/10/09 02:32:11;;;;;;;10.70;3.95;;;;;;;;;;6128360;23;20030;-77
2022/10/09 02:34:37;;;;;;;8.65;3.95;;;;;;;;;;6128815;23;20029;-77
2022/10/09 02:37:04;;;;;;;9.75;3.95;;;;;;;;;;6128601;23;20026;-77
2022/10/09 02:39:30;;;;;;;8.00;3.53;;;;;;;;;;6153729;23;20053;-77
2022/10/09 02:41:57;;;;;;;9.27;4.22;;;;;;;;;;6128053;23;20029;-77
2022/10/09 02:44:23;;;;;;;9.50;4.05;;;;;;;;;;6154988;23;20034;-77
2022/10/09 02:46:49;;;;;;;8.40;4.40;;;;;;;;;;6126881;23;20030;-77
2022/10/09 02:49:16;;;;;;;7.65;4.00;;;;;;;;;;6128260;23;20026;-77
2022/10/09 02:51:42;;;;;;;7.60;4.25;;;;;;;;;;6153763;23;20030;-77
2022/10/09 02:54:09;;;;;;;9.32;3.95;;;;;;;;;;6154190;23;20026;-77
2022/10/09 02:56:35;;;;;;;6.80;3.80;;;;;;;;;;6154569;23;20953;-77
2022/10/09 02:59:04;;;;;;;10.20;4.00;;;;;;;;;;6154541;23;20065;-77
2022/10/09 03:01:31;;;;;;;11.30;4.38;;;;;;;;;;6154677;23;20030;-77
2022/10/09 03:03:57;;;;;;;7.10;4.10;;;;;;;;;;6154439;23;20025;-77
2022/10/09 03:06:25;;;;;;;9.60;4.53;;;;;;;;;;6128743;23;20037;-77
2022/10/09 03:08:51;;;;;;;9.13;4.40;;;;;;;;;;6154211;23;20021;-77
2022/10/09 03:11:19;;;;;;;9.82;4.00;;;;;;;;;;6128132;23;20034;-77
2022/10/09 03:13:46;;;;;;;7.63;4.00;;;;;;;;;;6151856;23;20749;-77
2022/10/09 03:16:13;;;;;;;11.00;4.60;;;;;;;;;;6129364;23;20073;-78
2022/10/09 03:18:40;;;;;;;8.45;4.07;;;;;;;;;;6155532;23;20096;-77
2022/10/09 03:21:17;;;;;;;9.57;3.58;;;;;;;;;;6155791;23;20026;-78
2022/10/09 03:23:43;;;;;;;10.07;4.43;;;;;;;;;;6155511;23;20033;-78
2022/10/09 03:26:11;;;;;;;7.82;4.00;;;;;;;;;;6130216;23;20026;-78
2022/10/09 03:28:39;;;;;;;11.60;4.47;;;;;;;;;;6155066;23;20029;-78
2022/10/09 03:31:05;;;;;;;12.30;4.43;;;;;;;;;;6155160;23;20121;-77
2022/10/09 03:33:32;;;;;;;8.43;4.60;;;;;;;;;;6155352;23;20487;-77
2022/10/09 03:35:59;;;;;;;8.85;4.30;;;;;;;;;;6153592;23;20081;-77
2022/10/09 03:38:25;;;;;;;11.70;4.88;;;;;;;;;;6155780;23;20052;-78
2022/10/09 03:40:52;;;;;;;12.02;4.45;;;;;;;;;;6128686;23;20030;-78
2022/10/09 03:43:18;;;;;;;12.15;4.50;;;;;;;;;;6154831;23;20030;-78
2022/10/09 03:45:44;;;;;;;9.52;4.30;;;;;;;;;;6155805;23;20423;-78
2022/10/09 03:48:11;;;;;;;11.98;4.35;;;;;;;;;;6128682;23;20037;-78
2022/10/09 03:50:38;;;;;;;11.95;4.50;;;;;;;;;;6129354;23;20021;-78
2022/10/09 03:53:05;;;;;;;11.60;4.18;;;;;;;;;;6129036;23;20037;-78
2022/10/09 03:55:31;;;;;;;9.93;4.10;;;;;;;;;;6155447;23;20021;-77
2022/10/09 03:57:57;;;;;;;9.93;4.00;;;;;;;;;;6155294;23;20037;-78
2022/10/09 04:00:24;;;;;;;10.45;4.60;;;;;;;;;;6128314;23;20046;-78
2022/10/09 04:02:50;;;;;;;16.65;4.68;;;;;;;;;;6156531;23;20026;-78
2022/10/09 04:05:18;;;;;;;9.20;3.85;;;;;;;;;;6155480;23;20041;-78
2022/10/09 04:07:44;;;;;;;9.52;4.40;;;;;;;;;;6152614;23;20029;-79
2022/10/09 04:10:10;;;;;;;11.75;4.53;;;;;;;;;;6186680;23;20092;-79
2022/10/09 04:12:37;;;;;;;13.32;4.93;;;;;;;;;;6184928;23;20020;-78
2022/10/09 04:15:04;;;;;;;13.13;4.50;;;;;;;;;;6187005;23;20029;-78
2022/10/09 04:17:30;;;;;;;10.80;4.80;;;;;;;;;;6185171;23;20013;-79
2022/10/09 04:19:56;;;;;;;9.38;4.50;;;;;;;;;;6188584;23;20462;-78
2022/10/09 04:22:23;;;;;;;13.60;5.38;;;;;;;;;;6186962;23;20052;-80
2022/10/09 04:24:49;;;;;;;12.02;4.30;;;;;;;;;;6185266;23;20029;-79
2022/10/09 04:27:15;;;;;;;11.75;4.65;;;;;;;;;;6186364;23;20029;-77
2022/10/09 04:29:42;;;;;;;11.45;5.47;;;;;;;;;;6184802;23;20030;-77
2022/10/09 04:32:08;;;;;;;12.07;4.88;;;;;;;;;;6186892;23;20026;-78
2022/10/09 04:34:34;;;;;;;10.32;4.75;;;;;;;;;;6185223;23;20525;-78
2022/10/09 04:37:00;;;;;;;13.18;4.75;;;;;;;;;;6186612;23;20029;-79
2022/10/09 04:39:27;;;;;;;10.98;4.30;;;;;;;;;;6184851;23;20025;-78
2022/10/09 04:41:53;;;;;;;8.18;4.40;;;;;;;;;;6184789;23;20084;-78
2022/10/09 04:44:19;;;;;;;13.60;4.93;;;;;;;;;;6184464;23;20037;-78
2022/10/09 04:46:48;;;;;;;14.65;5.40;;;;;;;;;;6184796;23;20219;-79
2022/10/09 04:49:14;;;;;;;8.98;4.50;;;;;;;;;;6186691;23;20029;-79
2022/10/09 04:51:42;;;;;;;11.25;4.38;;;;;;;;;;6186985;23;20037;-76
2022/10/09 04:54:08;;;;;;;10.00;4.28;;;;;;;;;;6186047;23;20029;-79
2022/10/09 04:56:34;;;;;;;11.60;4.70;;;;;;;;;;6186637;23;20013;-79
2022/10/09 04:59:01;;;;;;;9.63;5.00;;;;;;;;;;6185855;23;20485;-79
2022/10/09 05:01:27;;;;;;;11.32;5.03;;;;;;;;;;6186777;23;20498;-77
2022/10/09 05:03:56;;;;;;;8.63;4.43;;;;;;;;;;6186563;23;20014;-79
2022/10/09 05:06:22;;;;;;;11.32;4.53;;;;;;;;;;6185985;23;20030;-79
2022/10/09 05:08:49;;;;;;;9.25;4.80;;;;;;;;;;6161047;23;20030;-79
2022/10/09 05:11:23;;;;;;;11.63;4.90;;;;;;;;;;6130181;23;20853;-78
2022/10/09 05:13:51;;;;;;;10.80;4.63;;;;;;;;;;6129189;23;20030;-78
2022/10/09 05:16:19;;;;;;;11.05;4.43;;;;;;;;;;6156492;23;20041;-78
2022/10/09 05:18:47;;;;;;;11.52;4.93;;;;;;;;;;6156433;23;20375;-78
2022/10/09 05:21:14;;;;;;;9.88;4.70;;;;;;;;;;6155844;23;20498;-77
2022/10/09 05:23:40;;;;;;;10.70;4.75;;;;;;;;;;6130503;23;20033;-76
2022/10/09 05:26:08;;;;;;;10.80;4.90;;;;;;;;;;6130123;23;20427;-77
2022/10/09 05:28:34;;;;;;;9.15;4.90;;;;;;;;;;6130598;23;20029;-78
2022/10/09 05:31:02;;;;;;;11.10;5.70;;;;;;;;;;6130335;23;20510;-76
2022/10/09 05:33:28;;;;;;;12.93;5.00;;;;;;;;;;6155346;23;20030;-77
2022/10/09 05:35:58;;;;;;;10.25;4.35;;;;;;;;;;6127187;23;20038;-77
2022/10/09 05:38:24;;;;;;;11.70;4.90;;;;;;;;;;6126661;23;20113;-77
2022/10/09 05:40:57;;;;;;;12.20;5.03;;;;;;;;;;6127209;23;20105;-77
2022/10/09 05:43:34;;;;;;;12.52;5.57;;;;;;;;;;6153694;23;20101;-77
2022/10/09 05:46:08;;;;;;;9.10;4.75;;;;;;;;;;6128210;23;20029;-77
2022/10/09 05:48:35;;;;;;;10.32;5.50;;;;;;;;;;6128333;23;20026;-77
2022/10/09 05:51:09;;;;;;;11.88;5.28;;;;;;;;;;6153107;23;20041;-77
2022/10/09 05:53:35;;;;;;;11.25;5.70;;;;;;;;;;6126981;23;20032;-77
2022/10/09 05:56:12;;;;;;;9.60;5.30;;;;;;;;;;6126917;23;20034;-77
2022/10/09 05:58:39;;;;;;;11.77;5.47;;;;;;;;;;6152890;23;20030;-77
2022/10/09 06:01:07;;;;;;;9.52;5.68;;;;;;;;;;6128444;23;20026;-77
2022/10/09 06:03:34;;;;;;;13.80;5.90;;;;;;;;;;6154007;23;20030;-77
2022/10/09 06:06:05;;;;;;;11.30;5.80;;;;;;;;;;6154305;23;20455;-77
2022/10/09 06:08:32;;;;;;;15.55;6.93;;;;;;;;;;6168260;23;20036;-77
2022/10/09 06:11:07;;;;;;;12.52;6.63;;;;;;;;;;6184354;23;20033;-77
2022/10/09 06:13:33;;;;;;;12.68;6.75;;;;;;;;;;6182769;23;20032;-76
2022/10/09 06:16:00;;;;;;;11.40;5.45;;;;;;;;;;6181079;23;20032;-77
2022/10/09 06:18:26;;;;;;;14.60;5.53;;;;;;;;;;6179826;23;20038;-77
2022/10/09 06:20:53;;;;;;;9.15;5.03;;;;;;;;;;6179125;23;20038;-77
2022/10/09 06:23:20;;;;;;;10.60;4.35;;;;;;;;;;6182630;23;20033;-77
2022/10/09 06:25:53;;;;;;;10.63;4.70;;;;;;;;;;6183505;23;20029;-77
2022/10/09 06:28:19;;;;;;;12.45;4.70;;;;;;;;;;6182916;23;20115;-77
2022/10/09 06:30:46;;;;;;;7.60;3.88;;;;;;;;;;6184669;23;20029;-77
2022/10/09 06:33:12;;;;;;;8.70;4.35;;;;;;;;;;6184439;23;20105;-77
2022/10/09 06:35:39;;;;;;;9.77;4.25;;;;;;;;;;6184348;23;20033;-77
2022/10/09 06:38:05;;;;;;;7.35;4.10;;;;;;;;;;6183930;23;20033;-77
2022/10/09 06:40:35;;;;;;;9.55;4.93;;;;;;;;;;6185252;23;20029;-77
2022/10/09 06:43:02;;;;;;;7.27;4.23;;;;;;;;;;6182848;23;20033;-77
2022/10/09 06:45:29;;;;;;;8.48;4.68;;;;;;;;;;6184487;23;20221;-77
2022/10/09 06:47:58;;;;;;;8.82;4.85;;;;;;;;;;6185476;23;20022;-78
2022/10/09 06:50:24;;;;;;;9.90;5.05;;;;;;;;;;6184875;23;20026;-78
2022/10/09 06:52:50;;;;;;;10.18;5.28;;;;;;;;;;6184501;23;20018;-78
2022/10/09 06:55:17;;;;;;;11.57;4.93;;;;;;;;;;6184476;23;20059;-79
2022/10/09 06:57:43;;;;;;;14.18;6.10;;;;;;;;;;6186002;23;20474;-78
2022/10/09 07:00:10;;;;;;;12.63;5.80;;;;;;;;;;6185476;23;20064;-79
2022/10/09 07:02:36;;;;;;;9.85;5.72;;;;;;;;;;6187465;23;20026;-79
2022/10/09 07:05:09;;;;;;;13.13;5.75;;;;;;;;;;6185819;23;20029;-79
2022/10/09 07:07:38;;;;;;;12.95;5.97;;;;;;;;;;6185777;23;20022;-79
2022/10/09 07:10:04;;;;;;;11.27;6.50;;;;;;;;;;6186210;23;20037;-79
2022/10/09 07:12:33;;;;;;;12.07;6.50;;;;;;;;;;6187100;23;20048;-79
2022/10/09 07:14:59;;;;;;;11.50;6.35;;;;;;;;;;6185370;23;20142;-79
2022/10/09 07:17:26;;;;;;;14.02;6.35;;;;;;;;;;6185113;23;20017;-78
2022/10/09 07:19:52;;;;;;;13.85;6.32;;;;;;;;;;6181917;23;20106;-76
2022/10/09 07:22:18;;;;;;;20.73;7.22;;;;;;;;;;6183405;23;20025;-76
2022/10/09 07:24:51;;;;;;;14.45;6.68;;;;;;;;;;6182358;23;20030;-76
2022/10/09 07:27:17;;;;;;;11.20;6.28;;;;;;;;;;6181800;23;20025;-79
2022/10/09 07:29:43;;;;;;;12.98;6.53;;;;;;;;;;6185400;23;20030;-76
2022/10/09 07:32:10;;;;;;;11.25;6.28;;;;;;;;;;6181700;23;20025;-77
2022/10/09 07:34:36;;;;;;;14.80;5.65;;;;;;;;;;6182900;23;20037;-77
2022/10/09 07:37:02;;;;;;;13.60;6.78;;;;;;;;;;6183557;23;20034;-77
2022/10/09 07:39:29;;;;;;;16.98;7.05;;;;;;;;;;6181210;23;20029;-77
2022/10/09 07:41:55;;;;;;;12.68;6.75;;;;;;;;;;6182195;23;20105;-77
2022/10/09 07:44:21;;;;;;;16.02;7.32;;;;;;;;;;6183755;23;20096;-77
2022/10/09 07:46:51;;;;;;;16.38;7.03;;;;;;;;;;6184288;23;20029;-77
2022/10/09 07:49:17;;;;;;;15.82;7.50;;;;;;;;;;6183294;23;20041;-77
2022/10/09 07:51:44;;;;;;;19.95;7.30;;;;;;;;;;6182818;23;20028;-77
2022/10/09 07:54:10;;;;;;;20.77;8.25;;;;;;;;;;6182611;23;20029;-77
2022/10/09 07:56:37;;;;;;;18.50;8.35;;;;;;;;;;6181917;23;20486;-77
2022/10/09 07:59:04;;;;;;;15.95;7.10;;;;;;;;;;6182111;23;20037;-77
2022/10/09 08:01:31;;;;;;;16.23;7.53;;;;;;;;;;6182250;23;20032;-77
2022/10/09 08:03:58;;;;;;;14.73;8.45;;;;;;;;;;6182958;23;20337;-77
2022/10/09 08:06:25;;;;;;;20.27;9.15;;;;;;;;;;6181034;23;20033;-77
2022/10/09 08:08:52;;;;;;;13.15;7.05;;;;;;;;;;6180091;23;20030;-77
2022/10/09 08:11:19;;;;;;;19.05;9.00;;;;;;;;;;6183059;23;20026;-77
2022/10/09 08:13:47;;;;;;;16.92;7.63;;;;;;;;;;6184331;23;20080;-77
2022/10/09 08:16:14;;;;;;;13.88;6.78;;;;;;;;;;6181866;23;20061;-77
2022/10/09 08:18:40;;;;;;;18.30;7.43;;;;;;;;;;6181592;23;20030;-77
2022/10/09 08:21:11;;;;;;;17.38;7.25;;;;;;;;;;6181023;23;20546;-77
2022/10/09 08:23:37;;;;;;;11.38;5.97;;;;;;;;;;6181658;23;20494;-77
2022/10/09 08:26:04;;;;;;;10.18;5.25;;;;;;;;;;6182224;23;20037;-77
2022/10/09 08:28:30;;;;;;;12.98;5.47;;;;;;;;;;6179931;23;20026;-77
2022/10/09 08:30:57;;;;;;;12.02;5.13;;;;;;;;;;6182337;23;20502;-77
2022/10/09 08:33:24;;;;;;;11.23;5.30;;;;;;;;;;6183462;23;20029;-77
2022/10/09 08:35:51;;;;;;;9.10;5.10;;;;;;;;;;6180388;23;20029;-77
2022/10/09 08:38:18;;;;;;;11.48;4.75;;;;;;;;;;6181575;23;20025;-77
2022/10/09 08:41:10;;;;;;;12.57;4.85;;;;;;;;;;6181250;23;20029;-77
2022/10/09 08:43:38;;;;;;;17.55;5.80;;;;;;;;;;6181856;23;20034;-77
2022/10/09 08:46:09;;;;;;;15.00;5.13;;;;;;;;;;6181435;23;20084;-77
2022/10/09 08:48:40;;;;;;;13.07;5.00;;;;;;;;;;6183340;23;20101;-77
2022/10/09 08:51:10;;;;;;;12.88;5.03;;;;;;;;;;6182889;23;20040;-78
2022/10/09 08:53:36;;;;;;;13.43;5.60;;;;;;;;;;6183303;23;20029;-77
2022/10/09 08:56:04;;;;;;;16.75;5.53;;;;;;;;;;6181713;23;20037;-77
2022/10/09 08:58:33;;;;;;;12.05;4.70;;;;;;;;;;6182248;23;20029;-77
2022/10/09 09:01:03;;;;;;;16.42;4.60;;;;;;;;;;6182082;23;20025;-77
2022/10/09 09:03:40;;;;;;;12.50;4.60;;;;;;;;;;6179828;23;20041;-77
2022/10/09 09:06:21;;;;;;;9.25;4.38;;;;;;;;;;6178415;23;20459;-78
2022/10/09 09:08:52;;;;;;;15.32;4.82;;;;;;;;;;6182545;23;20026;-78
2022/10/09 09:11:18;;;;;;;13.45;4.53;;;;;;;;;;6184307;23;20030;-78
2022/10/09 09:13:59;;;;;;;10.93;3.83;;;;;;;;;;6182499;23;20025;-78
2022/10/09 09:16:28;;;;;;;8.82;3.75;;;;;;;;;;6183718;23;20033;-78
2022/10/09 09:19:18;;;;;;;10.50;3.35;;;;;;;;;;6183695;23;20025;-77
2022/10/09 09:21:52;;;;;;;11.93;3.78;;;;;;;;;;6170587;23;20486;-77
2022/10/09 09:24:20;;;;;;;15.20;4.03;;;;;;;;;;6183751;23;20029;-78
2022/10/09 09:26:48;;;;;;;12.15;3.75;;;;;;;;;;6181733;23;20471;-78
2022/10/09 09:29:19;;;;;;;10.50;3.00;;;;;;;;;;6181980;23;20392;-78
2022/10/09 09:31:45;;;;;;;;;;;;;;;;;;6185911;23;20026;-78
2022/10/09 09:34:18;;;;;;;11.50;4.32;;;;;;;;;;6181458;23;45323;-78
2022/10/09 09:36:48;;;;;;;15.82;4.65;;;;;;;;;;6182920;23;20025;-78
2022/10/09 09:39:14;;;;;;;13.57;5.05;;;;;;;;;;6181449;23;20025;-78
2022/10/09 09:42:17;;;;;;;9.82;3.80;;;;;;;;;;6183395;23;20832;-78
2022/10/09 09:45:02;;;;;;;10.93;4.13;;;;;;;;;;6184351;23;20061;-78
2022/10/09 09:47:36;;;;;;;9.25;4.38;;;;;;;;;;6183117;23;20029;-78
2022/10/09 09:50:04;;;;;;;8.80;3.35;;;;;;;;;;6183023;23;20029;-78
2022/10/09 09:52:33;;;;;;;12.45;3.58;;;;;;;;;;6181268;23;20085;-77
2022/10/09 09:55:00;;;;;;;9.32;3.35;;;;;;;;;;6183457;23;20876;-78
2022/10/09 09:57:31;;;;;;;8.07;3.33;;;;;;;;;;6183665;23;20054;-78
2022/10/09 10:00:08;;;;;;;10.98;3.67;;;;;;;;;;6181824;23;20025;-77
2022/10/09 10:02:34;;;;;;;7.85;3.28;;;;;;;;;;6183535;23;20029;-78
2022/10/09 10:05:13;;;;;;;10.55;3.88;;;;;;;;;;6182692;23;20088;-78
2022/10/09 10:07:39;;;;;;;10.73;3.15;;;;;;;;;;6174595;23;20102;-78
2022/10/09 10:10:08;;;;;;;11.02;5.07;;;;;;;;;;6157010;23;20076;-78
2022/10/09 10:12:39;;;;;;;19.55;6.63;;;;;;;;;;6131480;23;20034;-78
2022/10/09 10:15:05;;;;;;;15.23;5.88;;;;;;;;;;6132968;23;20030;-78
2022/10/09 10:17:33;;;;;;;12.75;5.07;;;;;;;;;;6128932;23;20030;-77
2022/10/09 10:20:03;;;;;;;12.38;4.90;;;;;;;;;;6157143;23;20030;-79
2022/10/09 10:22:30;;;;;;;;;;;;;;;;;;6135335;23;20026;-78
2022/10/09 10:24:57;;;;;;;11.63;4.60;;;;;;;;;;6135263;23;45296;-79
2022/10/09 10:27:39;;;;;;;7.93;3.40;;;;;;;;;;6162807;23;20024;-78
2022/10/09 10:30:09;;;;;;;14.27;4.25;;;;;;;;;;6138994;23;20078;-79
2022/10/09 10:32:39;;;;;;;10.80;5.28;;;;;;;;;;6138713;23;20026;-79
2022/10/09 10:35:10;;;;;;;9.55;4.00;;;;;;;;;;6139990;23;20021;-79
2022/10/09 10:37:39;;;;;;;9.48;3.10;;;;;;;;;;6141135;23;20029;-78
2022/10/09 10:40:06;;;;;;;8.93;3.65;;;;;;;;;;6136088;23;20755;-78
2022/10/09 10:42:39;;;;;;;8.48;3.83;;;;;;;;;;6164066;23;20073;-79
2022/10/09 10:45:13;;;;;;;10.35;3.35;;;;;;;;;;6160263;23;20056;-79
2022/10/09 10:47:47;;;;;;;7.75;2.83;;;;;;;;;;6129898;23;20026;-78
2022/10/09 10:50:22;;;;;;;8.48;3.17;;;;;;;;;;6133102;23;20017;-78
2022/10/09 10:52:57;;;;;;;12.15;5.95;;;;;;;;;;6133870;23;20026;-79
2022/10/09 10:55:25;;;;;;;13.23;5.03;;;;;;;;;;6137490;23;20029;-78
2022/10/09 10:58:13;;;;;;;11.05;3.95;;;;;;;;;;6138964;23;20026;-78
2022/10/09 11:00:41;;;;;;;12.88;4.25;;;;;;;;;;6137165;23;20034;-79
2022/10/09 11:03:21;;;;;;;11.25;6.15;;;;;;;;;;6139737;23;20018;-78
2022/10/09 11:05:54;;;;;;;9.23;4.68;;;;;;;;;;6140941;23;20022;-79
2022/10/09 11:08:30;;;;;;;12.07;4.13;;;;;;;;;;6173032;23;20032;-79
2022/10/09 11:11:15;;;;;;;11.18;3.55;;;;;;;;;;6193419;23;20049;-78
2022/10/09 11:13:45;;;;;;;9.43;3.72;;;;;;;;;;6189165;23;20013;-78
2022/10/09 11:16:26;;;;;;;9.60;3.97;;;;;;;;;;6191968;23;20026;-78
2022/10/09 11:18:56;;;;;;;8.52;3.30;;;;;;;;;;6190912;23;20045;-78
2022/10/09 11:21:36;;;;;;;9.40;3.08;;;;;;;;;;6191512;23;20024;-78
2022/10/09 11:24:15;;;;;;;8.95;3.63;;;;;;;;;;6192616;23;20495;-78
2022/10/09 11:26:47;;;;;;;9.48;3.22;;;;;;;;;;6190751;23;20026;-78
2022/10/09 11:29:20;;;;;;;8.50;3.28;;;;;;;;;;6193401;23;20033;-78
2022/10/09 11:31:46;;;;;;;6.65;3.13;;;;;;;;;;6183929;23;20088;-78
2022/10/09 11:34:16;;;;;;;9.70;3.30;;;;;;;;;;6180126;23;20033;-78
2022/10/09 11:36:45;;;;;;;8.65;3.38;;;;;;;;;;6181877;23;20540;-78
2022/10/09 11:39:13;;;;;;;8.18;3.20;;;;;;;;;;6181378;23;20053;-78
2022/10/09 11:41:40;;;;;;;12.07;3.40;;;;;;;;;;6181472;23;20518;-78
2022/10/09 11:44:13;;;;;;;8.27;2.90;;;;;;;;;;6183509;23;20029;-78
2022/10/09 11:46:51;;;;;;;10.48;3.00;;;;;;;;;;6181374;23;20032;-78
2022/10/09 11:49:38;;;;;;;9.57;3.10;;;;;;;;;;6183789;23;20140;-77
2022/10/09 11:52:10;;;;;;;7.50;2.60;;;;;;;;;;6137318;23;20134;-77
2022/10/09 11:54:37;;;;;;;11.65;2.90;;;;;;;;;;6181627;23;20218;-77
2022/10/09 11:57:04;;;;;;;5.88;2.70;;;;;;;;;;6183275;23;20026;-78
2022/10/09 11:59:34;;;;;;;8.18;2.72;;;;;;;;;;6185249;23;20489;-78
2022/10/09 12:02:19;;;;;;;7.40;2.22;;;;;;;;;;6184833;23;20037;-78
2022/10/09 12:04:46;;;;;;;7.45;2.45;;;;;;;;;;6183535;23;20101;-78
2022/10/09 12:07:32;;;;;;;6.32;2.75;;;;;;;;;;6185093;23;20029;-77
2022/10/09 12:10:04;;;;;;;6.13;2.53;;;;;;;;;;6184931;23;20179;-78
2022/10/09 12:12:31;;;;;;;7.97;3.40;;;;;;;;;;6183859;23;20977;-78
2022/10/09 12:15:08;;;;;;;8.02;3.65;;;;;;;;;;6186203;23;20033;-78
2022/10/09 12:17:44;;;;;;;10.18;3.90;;;;;;;;;;6185725;23;20036;-78
2022/10/09 12:20:21;;;;;;;11.88;3.60;;;;;;;;;;6185138;23;20036;-78
2022/10/09 12:22:52;;;;;;;6.65;3.10;;;;;;;;;;6186255;23;20040;-78
2022/10/09 12:25:42;;;;;;;8.38;3.97;;;;;;;;;;6185687;23;20029;-78
2022/10/09 12:28:09;;;;;;;;;;;;;;;;;;6185929;23;20032;-78
2022/10/09 12:30:38;;;;;;;8.75;3.92;;;;;;;;;;6185611;23;46726;-78
2022/10/09 12:33:13;;;;;;;9.20;4.10;;;;;;;;;;6184347;23;20021;-78
2022/10/09 12:35:41;;;;;;;8.10;3.90;;;;;;;;;;6182980;23;20032;-79
2022/10/09 12:38:15;;;;;;;7.93;3.22;;;;;;;;;;6184100;23;20029;-79
2022/10/09 12:40:44;;;;;;;8.23;3.58;;;;;;;;;;6183150;23;20029;-78
2022/10/09 12:43:14;;;;;;;10.63;3.53;;;;;;;;;;6183245;23;20037;-78
2022/10/09 12:45:44;;;;;;;7.43;3.57;;;;;;;;;;6181321;23;20462;-78
2022/10/09 12:48:11;;;;;;;;;;;;;;;;;;6182631;23;20049;-78
2022/10/09 12:50:37;;;;;;;11.40;3.50;;;;;;;;;;6182778;23;47363;-79
2022/10/09 12:53:05;;;;;;;9.10;3.38;;;;;;;;;;6183564;23;20021;-78
2022/10/09 12:55:32;;;;;;;9.95;3.85;;;;;;;;;;6182004;23;20032;-78
2022/10/09 12:58:02;;;;;;;7.75;3.78;;;;;;;;;;6182066;23;20063;-78
2022/10/09 13:00:30;;;;;;;7.93;3.72;;;;;;;;;;6185754;23;20861;-80
2022/10/09 13:02:56;;;;;;;6.85;3.53;;;;;;;;;;6187354;23;20033;-80
2022/10/09 13:05:33;;;;;;;12.00;4.60;;;;;;;;;;6187600;23;20065;-79
2022/10/09 13:07:59;;;;;;;7.53;3.75;;;;;;;;;;6170430;23;20026;-79
2022/10/09 13:10:26;;;;;;;8.70;3.55;;;;;;;;;;6127949;23;20040;-78
2022/10/09 13:12:56;;;;;;;13.38;4.88;;;;;;;;;;6128811;23;20030;-79
2022/10/09 13:15:31;;;;;;;8.93;4.20;;;;;;;;;;6154321;23;20026;-79
2022/10/09 13:17:57;;;;;;;9.90;4.03;;;;;;;;;;6152958;23;20037;-79
2022/10/09 13:20:26;;;;;;;9.00;4.10;;;;;;;;;;6127411;23;20030;-78
2022/10/09 13:22:53;;;;;;;7.75;3.97;;;;;;;;;;6154226;23;20030;-78
2022/10/09 13:25:19;;;;;;;10.57;5.10;;;;;;;;;;6128650;23;20906;-80
2022/10/09 13:27:47;;;;;;;8.65;4.72;;;;;;;;;;6130028;23;20050;-80
2022/10/09 13:30:15;;;;;;;8.73;4.05;;;;;;;;;;6130868;23;20034;-80
2022/10/09 13:32:42;;;;;;;8.02;3.92;;;;;;;;;;6130268;23;20021;-80
2022/10/09 13:35:10;;;;;;;7.97;3.35;;;;;;;;;;6129361;23;20026;-78
2022/10/09 13:37:38;;;;;;;10.73;4.10;;;;;;;;;;6127410;23;20807;-76
2022/10/09 13:40:06;;;;;;;11.98;4.95;;;;;;;;;;6155278;23;20032;-77
2022/10/09 13:42:35;;;;;;;13.80;5.05;;;;;;;;;;6128835;23;20371;-77
2022/10/09 13:45:04;;;;;;;6.38;3.72;;;;;;;;;;6128822;23;20049;-77
2022/10/09 13:47:31;;;;;;;11.45;3.95;;;;;;;;;;6155489;23;20022;-78
2022/10/09 13:49:59;;;;;;;7.60;4.10;;;;;;;;;;6127601;23;20020;-77
2022/10/09 13:52:26;;;;;;;9.43;3.42;;;;;;;;;;6128272;23;20026;-77
2022/10/09 13:54:53;;;;;;;6.32;3.20;;;;;;;;;;6153843;23;20022;-77
2022/10/09 13:57:21;;;;;;;8.10;3.20;;;;;;;;;;6127641;23;20030;-76
2022/10/09 13:59:48;;;;;;;9.30;3.90;;;;;;;;;;6154053;23;20053;-77
2022/10/09 14:02:17;;;;;;;8.05;3.42;;;;;;;;;;6128685;23;20026;-78
2022/10/09 14:04:48;;;;;;;11.23;3.20;;;;;;;;;;6155845;23;20033;-80
2022/10/09 14:07:16;;;;;;;8.55;3.55;;;;;;;;;;6138002;23;20022;-79
2022/10/09 14:09:44;;;;;;;10.05;3.67;;;;;;;;;;6184376;23;20522;-79
2022/10/09 14:12:12;;;;;;;8.50;4.80;;;;;;;;;;6184460;23;20022;-80
2022/10/09 14:14:39;;;;;;;10.52;4.13;;;;;;;;;;6185488;23;20035;-80
2022/10/09 14:17:08;;;;;;;11.45;3.85;;;;;;;;;;6182347;23;20025;-78
2022/10/09 14:19:35;;;;;;;6.93;2.50;;;;;;;;;;6184788;23;20108;-79
2022/10/09 14:22:03;;;;;;;7.95;2.80;;;;;;;;;;6187149;23;20077;-79
2022/10/09 14:24:30;;;;;;;7.95;3.15;;;;;;;;;;6185875;23;20497;-80
2022/10/09 14:26:58;;;;;;;8.52;3.30;;;;;;;;;;6185664;23;20026;-78
2022/10/09 14:29:26;;;;;;;7.85;3.15;;;;;;;;;;6182380;23;20022;-78
2022/10/09 14:31:53;;;;;;;6.95;3.42;;;;;;;;;;6182174;23;20050;-77
2022/10/09 14:34:21;;;;;;;7.32;2.85;;;;;;;;;;6182682;23;20044;-76
2022/10/09 14:36:48;;;;;;;7.53;3.00;;;;;;;;;;6182928;23;20022;-78
2022/10/09 14:39:16;;;;;;;7.57;3.20;;;;;;;;;;6184415;23;20021;-77
2022/10/09 14:41:42;;;;;;;7.35;2.90;;;;;;;;;;6187329;23;20026;-78
2022/10/09 14:44:09;;;;;;;10.82;3.83;;;;;;;;;;6186295;23;20029;-78
2022/10/09 14:46:38;;;;;;;10.95;3.10;;;;;;;;;;6186113;23;20033;-78
2022/10/09 14:49:07;;;;;;;6.88;2.90;;;;;;;;;;6187865;23;20037;-78